Boundiali Airport


Codes: DIBI/BXI
Name: Boundiali Airport
City: Boundiali
Country: Cote dIvoire
Elevation: 1286 ft.

Photos at Boundiali Airport


   Photos courtesy of SpottingLog. You can add your own sightings and photos by signing up for a free trial today.



No photos found.

Weather at Boundiali Airport


Time (UTC)DescriptionTempratureWindCloud coverageVisibilityPressureHumidity
25-Jun-2024 21:00Overcast Clouds27°C2 mph, SE100%10000m1011hPa69%
26-Jun-2024 00:00Light Rain26°C4 mph, S99%10000m1011hPa76%
26-Jun-2024 03:00Light Rain24°C7 mph, S93%10000m1011hPa87%
26-Jun-2024 06:00Light Rain22°C7 mph, S85%10000m1012hPa97%
26-Jun-2024 09:00Broken Clouds26°C7 mph, SW80%10000m1013hPa78%
26-Jun-2024 12:00Overcast Clouds31°C7 mph, SW86%10000m1012hPa55%
26-Jun-2024 15:00Light Rain32°C4 mph, S66%10000m1009hPa51%
26-Jun-2024 18:00Light Rain28°C7 mph, SE75%10000m1009hPa69%
26-Jun-2024 21:00Overcast Clouds25°C4 mph, SW99%10000m1011hPa82%
27-Jun-2024 00:00Light Rain23°C2 mph, W100%10000m1012hPa91%
27-Jun-2024 03:00Overcast Clouds22°C2 mph, SW100%10000m1011hPa94%
27-Jun-2024 06:00Overcast Clouds22°C2 mph, S98%10000m1012hPa96%
27-Jun-2024 09:00Overcast Clouds27°C4 mph, SW97%10000m1012hPa73%
27-Jun-2024 12:00Overcast Clouds33°C2 mph, S98%10000m1011hPa47%
27-Jun-2024 15:00Overcast Clouds33°C4 mph, SE96%10000m1009hPa45%
27-Jun-2024 18:00Overcast Clouds31°C4 mph, E92%10000m1009hPa55%
27-Jun-2024 21:00Overcast Clouds26°C2 mph, S98%10000m1011hPa70%
28-Jun-2024 00:00Light Rain24°C4 mph, S97%10000m1012hPa82%
28-Jun-2024 03:00Light Rain22°C4 mph, S96%10000m1012hPa93%
28-Jun-2024 06:00Light Rain22°C4 mph, S93%10000m1013hPa97%
28-Jun-2024 09:00Broken Clouds26°C7 mph, SW56%10000m1014hPa79%
28-Jun-2024 12:00Scattered Clouds32°C7 mph, S46%10000m1013hPa51%
28-Jun-2024 15:00Few Clouds33°C9 mph, SE18%10000m1010hPa45%
28-Jun-2024 18:00Scattered Clouds31°C4 mph, S45%10000m1009hPa55%
28-Jun-2024 21:00Scattered Clouds26°C7 mph, S27%10000m1012hPa71%
29-Jun-2024 00:00Few Clouds25°C7 mph, S17%10000m1013hPa76%
29-Jun-2024 03:00Few Clouds24°C7 mph, SW14%10000m1011hPa82%
29-Jun-2024 06:00Broken Clouds24°C7 mph, S56%10000m1013hPa85%
29-Jun-2024 09:00Scattered Clouds27°C9 mph, SW47%10000m1013hPa69%
29-Jun-2024 12:00Broken Clouds33°C7 mph, SW52%10000m1012hPa48%
29-Jun-2024 15:00Broken Clouds35°C4 mph, W77%10000m1009hPa42%
29-Jun-2024 18:00Light Rain28°C4 mph, W87%10000m1010hPa68%
29-Jun-2024 21:00Light Rain26°C4 mph, W68%10000m1011hPa79%
30-Jun-2024 00:00Moderate Rain23°C7 mph, SW76%10000m1012hPa95%
30-Jun-2024 03:00Light Rain23°C2 mph, S100%10000m1011hPa94%
30-Jun-2024 06:00Overcast Clouds22°C2 mph, SW100%10000m1013hPa97%
30-Jun-2024 09:00Light Rain25°C4 mph, W99%10000m1015hPa81%
30-Jun-2024 12:00Light Rain31°C7 mph, S93%10000m1012hPa54%
30-Jun-2024 15:00Overcast Clouds33°C4 mph, S94%10000m1010hPa46%
30-Jun-2024 18:00Overcast Clouds29°C7 mph, S94%10000m1010hPa61%